Arrowsmith, IL

2:41 AM CDT on August 21, 2014 (GMT -0500)
LeRoy Fertilizer | Change Station
CLOSE
Current Station
Personal Weather Station
Location: Le Roy, IL
Elevation: 784 ft
Nearby Weather Stations
Active Advisory: Special Statement

Elev 784 ft 40.35 °N, 88.77 °W | Updated 8 minutes ago

Partly Cloudy
Partly Cloudy
71.0 °F
Feels Like 71.0 °F
N
0.0
Wind Variable Wind from SSE
Gusts 1.0 mph

Today
High -- | Low -- °F
--% Chance of Precip.
Yesterday
High -- | Low -- °F
Precip. -- in
6:11 AM 7:43 PM
Waning Crescent, 16% visible
Pressure 29.94 in
Visibility 10.0 miles
Clouds Few 6000 ft
Dew Point 69 °F
Humidity 94%
Rainfall 0.00 in
Snow Depth Not available.
UV 0 out of 12
Pollen 9.70 out of 12
Air Quality Not available.
Flu Activity Not available.
METAR KBMI 210656Z AUTO 19007KT 10SM FEW060 21/19 A2998 RMK AO2 T02110194 SLP139

More Conditions Fewer Conditions

Pressure 29.94 in
Visibility 10.0 miles
Clouds Few 6000 ft
Dew Point 69 °F
Humidity 94%
Rainfall 0.00 in
Snow Depth Not available.
UV 0 out of 12
Pollen 9.70 out of 12
Air Quality Not available.
Flu Activity Not available.
METAR KBMI 210656Z AUTO 19007KT 10SM FEW060 21/19 A2998 RMK AO2 T02110194 SLP139

More Conditions Fewer Conditions

10-Day Weather Forecast

Almanac

Astronomy

Aug. 21, 2014 Rise Set
Actual Time 6:11 AM CDT 7:43 PM CDT
Civil Twilight 5:42 AM CDT 8:12 PM CDT
Nautical Twilight 5:07 AM CDT 8:46 PM CDT
Astronomical Twilight 4:30 AM CDT 9:23 PM CDT
Moon 2:41 AM CDT 5:12 PM CDT
Length of Visible Light 14h 29m
Length of Day
13h 32m
Tomorrow will be 2m 26s shorter.
Waning Crescent, 16% of the Moon is Illuminated
Today
Waning Crescent
Aug 25
New
Sep 2
First Quarter
Sep 8
Full
Sep 15
Last Quarter

Today's Extremes

State Highs State Lows

Community

WunderPhotos

Upload Photos

1,745,858 photos uploaded!

Nearby

Snow Depth

Station Depth Elevation
No new snow has been reported.

Earthquake Activity

City Distance Mag. Time & Date
No recent earthquake activity has been reported nearby.
Minimum magnitude displayed is 2.5.

Coastal Water Temperatures

Place Temperature
No Stations Reporting

Nearby Weather Stations